sensor_id;sensor_type;location;lat;lon;timestamp;P1;durP1;ratioP1;P2;durP2;ratioP2
20038;SDS011;21737;42.868;25.320;2022-10-16T00:02:45;20.47;;;12.27;;
20038;SDS011;21737;42.868;25.320;2022-10-16T00:05:47;23.57;;;12.77;;
20038;SDS011;21737;42.868;25.320;2022-10-16T00:08:49;16.37;;;12.27;;
20038;SDS011;21737;42.868;25.320;2022-10-16T00:11:51;18.23;;;12.00;;
20038;SDS011;21737;42.868;25.320;2022-10-16T00:14:53;16.73;;;11.90;;
20038;SDS011;21737;42.868;25.320;2022-10-16T00:17:54;17.57;;;13.03;;
20038;SDS011;21737;42.868;25.320;2022-10-16T00:21:00;17.97;;;11.80;;
20038;SDS011;21737;42.868;25.320;2022-10-16T00:24:04;16.80;;;11.57;;
20038;SDS011;21737;42.868;25.320;2022-10-16T00:27:06;18.43;;;12.23;;
20038;SDS011;21737;42.868;25.320;2022-10-16T00:30:08;17.37;;;12.00;;
20038;SDS011;21737;42.868;25.320;2022-10-16T00:33:10;17.93;;;12.60;;
20038;SDS011;21737;42.868;25.320;2022-10-16T00:36:13;19.50;;;12.93;;
20038;SDS011;21737;42.868;25.320;2022-10-16T00:39:14;19.80;;;13.07;;
20038;SDS011;21737;42.868;25.320;2022-10-16T00:42:17;19.70;;;12.93;;
20038;SDS011;21737;42.868;25.320;2022-10-16T00:45:19;16.87;;;12.03;;
20038;SDS011;21737;42.868;25.320;2022-10-16T00:48:20;20.17;;;11.87;;
20038;SDS011;21737;42.868;25.320;2022-10-16T00:51:23;18.93;;;12.30;;
20038;SDS011;21737;42.868;25.320;2022-10-16T01:06:21;17.63;;;11.87;;
20038;SDS011;21737;42.868;25.320;2022-10-16T01:18:48;17.90;;;11.87;;
20038;SDS011;21737;42.868;25.320;2022-10-16T01:21:51;17.37;;;12.50;;
20038;SDS011;21737;42.868;25.320;2022-10-16T01:24:54;19.40;;;12.50;;
20038;SDS011;21737;42.868;25.320;2022-10-16T01:27:56;17.97;;;11.83;;
20038;SDS011;21737;42.868;25.320;2022-10-16T01:30:58;17.10;;;12.53;;
20038;SDS011;21737;42.868;25.320;2022-10-16T01:34:20;19.40;;;12.93;;
20038;SDS011;21737;42.868;25.320;2022-10-16T01:37:32;18.80;;;13.23;;
20038;SDS011;21737;42.868;25.320;2022-10-16T01:40:35;19.47;;;12.37;;
20038;SDS011;21737;42.868;25.320;2022-10-16T01:43:39;19.13;;;12.27;;
20038;SDS011;21737;42.868;25.320;2022-10-16T01:46:42;19.57;;;12.97;;
20038;SDS011;21737;42.868;25.320;2022-10-16T01:49:44;21.23;;;14.00;;
20038;SDS011;21737;42.868;25.320;2022-10-16T01:52:48;19.93;;;13.80;;
20038;SDS011;21737;42.868;25.320;2022-10-16T01:55:50;19.53;;;13.33;;
20038;SDS011;21737;42.868;25.320;2022-10-16T01:58:55;17.47;;;12.47;;
20038;SDS011;21737;42.868;25.320;2022-10-16T02:01:59;18.90;;;13.07;;
20038;SDS011;21737;42.868;25.320;2022-10-16T02:05:05;17.43;;;12.47;;
20038;SDS011;21737;42.868;25.320;2022-10-16T02:08:09;18.40;;;12.83;;
20038;SDS011;21737;42.868;25.320;2022-10-16T02:11:11;18.73;;;13.40;;
20038;SDS011;21737;42.868;25.320;2022-10-16T02:14:13;21.10;;;13.20;;
20038;SDS011;21737;42.868;25.320;2022-10-16T02:17:15;19.47;;;12.90;;
20038;SDS011;21737;42.868;25.320;2022-10-16T02:20:18;20.10;;;12.73;;
20038;SDS011;21737;42.868;25.320;2022-10-16T02:23:27;23.80;;;13.37;;
20038;SDS011;21737;42.868;25.320;2022-10-16T02:26:31;17.63;;;12.97;;
20038;SDS011;21737;42.868;25.320;2022-10-16T02:29:38;19.37;;;13.50;;
20038;SDS011;21737;42.868;25.320;2022-10-16T02:32:41;18.70;;;13.27;;
20038;SDS011;21737;42.868;25.320;2022-10-16T02:35:44;17.63;;;12.60;;
20038;SDS011;21737;42.868;25.320;2022-10-16T02:38:46;18.00;;;12.27;;
20038;SDS011;21737;42.868;25.320;2022-10-16T02:41:48;16.30;;;12.53;;
20038;SDS011;21737;42.868;25.320;2022-10-16T02:44:50;20.17;;;12.57;;
20038;SDS011;21737;42.868;25.320;2022-10-16T02:47:51;22.53;;;13.73;;
20038;SDS011;21737;42.868;25.320;2022-10-16T02:50:53;19.97;;;14.03;;
20038;SDS011;21737;42.868;25.320;2022-10-16T02:53:55;20.10;;;12.60;;
20038;SDS011;21737;42.868;25.320;2022-10-16T02:56:56;20.97;;;13.73;;
20038;SDS011;21737;42.868;25.320;2022-10-16T02:59:58;21.33;;;13.53;;
20038;SDS011;21737;42.868;25.320;2022-10-16T03:03:00;16.20;;;12.57;;
20038;SDS011;21737;42.868;25.320;2022-10-16T03:06:01;20.47;;;12.53;;
20038;SDS011;21737;42.868;25.320;2022-10-16T03:09:04;18.47;;;13.23;;
20038;SDS011;21737;42.868;25.320;2022-10-16T03:12:05;18.00;;;13.17;;
20038;SDS011;21737;42.868;25.320;2022-10-16T03:15:08;21.10;;;13.00;;
20038;SDS011;21737;42.868;25.320;2022-10-16T03:18:09;20.97;;;13.80;;
20038;SDS011;21737;42.868;25.320;2022-10-16T03:21:11;18.60;;;13.33;;
20038;SDS011;21737;42.868;25.320;2022-10-16T03:24:13;21.30;;;13.20;;
20038;SDS011;21737;42.868;25.320;2022-10-16T03:27:14;18.43;;;13.10;;
20038;SDS011;21737;42.868;25.320;2022-10-16T03:30:16;19.63;;;12.80;;
20038;SDS011;21737;42.868;25.320;2022-10-16T03:33:18;21.10;;;13.43;;
20038;SDS011;21737;42.868;25.320;2022-10-16T03:36:19;20.70;;;13.80;;
20038;SDS011;21737;42.868;25.320;2022-10-16T03:39:21;19.20;;;13.20;;
20038;SDS011;21737;42.868;25.320;2022-10-16T03:42:23;21.97;;;13.10;;
20038;SDS011;21737;42.868;25.320;2022-10-16T03:45:25;20.60;;;13.13;;
20038;SDS011;21737;42.868;25.320;2022-10-16T03:48:28;18.97;;;13.17;;
20038;SDS011;21737;42.868;25.320;2022-10-16T03:51:30;20.40;;;13.10;;
20038;SDS011;21737;42.868;25.320;2022-10-16T03:54:32;19.97;;;12.83;;
20038;SDS011;21737;42.868;25.320;2022-10-16T03:57:33;21.27;;;13.17;;
20038;SDS011;21737;42.868;25.320;2022-10-16T04:00:35;22.53;;;13.57;;
20038;SDS011;21737;42.868;25.320;2022-10-16T04:03:37;17.80;;;13.37;;
20038;SDS011;21737;42.868;25.320;2022-10-16T04:06:38;23.23;;;13.87;;
20038;SDS011;21737;42.868;25.320;2022-10-16T04:09:40;22.53;;;14.57;;
20038;SDS011;21737;42.868;25.320;2022-10-16T04:12:42;20.03;;;13.53;;
20038;SDS011;21737;42.868;25.320;2022-10-16T04:15:44;20.50;;;13.27;;
20038;SDS011;21737;42.868;25.320;2022-10-16T04:18:46;20.10;;;13.17;;
20038;SDS011;21737;42.868;25.320;2022-10-16T04:21:47;23.83;;;14.87;;
20038;SDS011;21737;42.868;25.320;2022-10-16T04:24:49;20.40;;;13.83;;
20038;SDS011;21737;42.868;25.320;2022-10-16T04:27:52;22.27;;;14.83;;
20038;SDS011;21737;42.868;25.320;2022-10-16T04:30:54;25.17;;;14.77;;
20038;SDS011;21737;42.868;25.320;2022-10-16T04:33:55;23.93;;;15.80;;
20038;SDS011;21737;42.868;25.320;2022-10-16T04:36:57;28.67;;;14.90;;
20038;SDS011;21737;42.868;25.320;2022-10-16T04:39:59;40.07;;;19.93;;
20038;SDS011;21737;42.868;25.320;2022-10-16T04:43:00;27.60;;;16.83;;
20038;SDS011;21737;42.868;25.320;2022-10-16T04:46:02;23.27;;;15.00;;
20038;SDS011;21737;42.868;25.320;2022-10-16T04:49:06;23.90;;;14.80;;
20038;SDS011;21737;42.868;25.320;2022-10-16T04:52:07;21.30;;;14.73;;
20038;SDS011;21737;42.868;25.320;2022-10-16T04:55:10;23.57;;;15.23;;
20038;SDS011;21737;42.868;25.320;2022-10-16T04:58:12;21.00;;;15.13;;
20038;SDS011;21737;42.868;25.320;2022-10-16T05:01:14;29.17;;;15.63;;
20038;SDS011;21737;42.868;25.320;2022-10-16T05:04:15;24.20;;;14.70;;
20038;SDS011;21737;42.868;25.320;2022-10-16T05:07:17;22.87;;;14.57;;
20038;SDS011;21737;42.868;25.320;2022-10-16T05:10:19;23.00;;;14.97;;
20038;SDS011;21737;42.868;25.320;2022-10-16T05:13:21;24.53;;;14.07;;
20038;SDS011;21737;42.868;25.320;2022-10-16T05:16:23;21.80;;;14.10;;
20038;SDS011;21737;42.868;25.320;2022-10-16T05:19:24;18.67;;;13.50;;
20038;SDS011;21737;42.868;25.320;2022-10-16T05:22:32;25.77;;;14.93;;
20038;SDS011;21737;42.868;25.320;2022-10-16T05:25:34;23.70;;;14.07;;
20038;SDS011;21737;42.868;25.320;2022-10-16T05:28:37;18.87;;;13.97;;
20038;SDS011;21737;42.868;25.320;2022-10-16T05:31:41;20.30;;;13.93;;
20038;SDS011;21737;42.868;25.320;2022-10-16T05:34:42;24.27;;;13.50;;
20038;SDS011;21737;42.868;25.320;2022-10-16T05:37:44;24.93;;;13.47;;
20038;SDS011;21737;42.868;25.320;2022-10-16T05:40:55;21.30;;;13.03;;
20038;SDS011;21737;42.868;25.320;2022-10-16T05:44:05;21.70;;;13.57;;
20038;SDS011;21737;42.868;25.320;2022-10-16T05:47:07;20.50;;;12.30;;
20038;SDS011;21737;42.868;25.320;2022-10-16T05:50:09;20.00;;;12.13;;
20038;SDS011;21737;42.868;25.320;2022-10-16T05:53:11;20.20;;;12.87;;
20038;SDS011;21737;42.868;25.320;2022-10-16T05:56:14;21.53;;;13.07;;
20038;SDS011;21737;42.868;25.320;2022-10-16T05:59:15;17.07;;;12.20;;
20038;SDS011;21737;42.868;25.320;2022-10-16T06:02:17;19.17;;;13.77;;
20038;SDS011;21737;42.868;25.320;2022-10-16T06:05:21;23.47;;;13.70;;
20038;SDS011;21737;42.868;25.320;2022-10-16T06:08:22;22.83;;;13.97;;
20038;SDS011;21737;42.868;25.320;2022-10-16T06:11:26;22.57;;;14.00;;
20038;SDS011;21737;42.868;25.320;2022-10-16T06:14:28;25.30;;;13.97;;
20038;SDS011;21737;42.868;25.320;2022-10-16T06:17:29;21.73;;;12.97;;
20038;SDS011;21737;42.868;25.320;2022-10-16T06:20:31;23.00;;;13.20;;
20038;SDS011;21737;42.868;25.320;2022-10-16T06:23:33;18.53;;;12.37;;
20038;SDS011;21737;42.868;25.320;2022-10-16T06:26:34;22.03;;;12.47;;
20038;SDS011;21737;42.868;25.320;2022-10-16T06:29:36;24.40;;;13.10;;
20038;SDS011;21737;42.868;25.320;2022-10-16T06:32:38;28.37;;;13.90;;
20038;SDS011;21737;42.868;25.320;2022-10-16T06:35:40;25.47;;;13.67;;
20038;SDS011;21737;42.868;25.320;2022-10-16T06:38:42;23.23;;;13.07;;
20038;SDS011;21737;42.868;25.320;2022-10-16T06:41:44;24.23;;;14.13;;
20038;SDS011;21737;42.868;25.320;2022-10-16T06:44:51;22.87;;;13.10;;
20038;SDS011;21737;42.868;25.320;2022-10-16T06:47:52;16.17;;;11.30;;
20038;SDS011;21737;42.868;25.320;2022-10-16T06:50:58;19.07;;;12.57;;
20038;SDS011;21737;42.868;25.320;2022-10-16T06:54:00;16.43;;;11.23;;
20038;SDS011;21737;42.868;25.320;2022-10-16T06:57:04;16.50;;;10.50;;
20038;SDS011;21737;42.868;25.320;2022-10-16T07:00:06;13.27;;;8.97;;
20038;SDS011;21737;42.868;25.320;2022-10-16T07:03:07;16.37;;;9.50;;
20038;SDS011;21737;42.868;25.320;2022-10-16T07:06:10;18.13;;;7.20;;
20038;SDS011;21737;42.868;25.320;2022-10-16T07:09:12;35.43;;;9.80;;
20038;SDS011;21737;42.868;25.320;2022-10-16T07:12:14;11.73;;;6.80;;
20038;SDS011;21737;42.868;25.320;2022-10-16T07:15:15;12.87;;;6.93;;
20038;SDS011;21737;42.868;25.320;2022-10-16T07:18:17;14.50;;;7.13;;
20038;SDS011;21737;42.868;25.320;2022-10-16T07:21:19;14.50;;;7.17;;
20038;SDS011;21737;42.868;25.320;2022-10-16T07:24:21;7.63;;;5.50;;
20038;SDS011;21737;42.868;25.320;2022-10-16T07:27:23;7.80;;;5.50;;
20038;SDS011;21737;42.868;25.320;2022-10-16T07:30:25;18.07;;;8.00;;
20038;SDS011;21737;42.868;25.320;2022-10-16T07:33:27;14.30;;;6.83;;
20038;SDS011;21737;42.868;25.320;2022-10-16T07:36:29;12.10;;;6.50;;
20038;SDS011;21737;42.868;25.320;2022-10-16T07:39:30;11.17;;;5.70;;
20038;SDS011;21737;42.868;25.320;2022-10-16T07:42:32;7.63;;;5.90;;
20038;SDS011;21737;42.868;25.320;2022-10-16T07:45:34;10.13;;;6.15;;
20038;SDS011;21737;42.868;25.320;2022-10-16T07:48:36;7.65;;;5.82;;
20038;SDS011;21737;42.868;25.320;2022-10-16T07:51:38;8.90;;;6.32;;
20038;SDS011;21737;42.868;25.320;2022-10-16T07:54:40;11.40;;;6.10;;
20038;SDS011;21737;42.868;25.320;2022-10-16T07:57:42;11.52;;;6.15;;
20038;SDS011;21737;42.868;25.320;2022-10-16T08:00:43;6.00;;;5.40;;
20038;SDS011;21737;42.868;25.320;2022-10-16T08:03:46;6.75;;;6.00;;
20038;SDS011;21737;42.868;25.320;2022-10-16T08:06:48;6.78;;;5.50;;
20038;SDS011;21737;42.868;25.320;2022-10-16T08:09:50;7.97;;;6.38;;
20038;SDS011;21737;42.868;25.320;2022-10-16T08:12:53;6.68;;;5.40;;
20038;SDS011;21737;42.868;25.320;2022-10-16T08:15:54;7.13;;;4.55;;
20038;SDS011;21737;42.868;25.320;2022-10-16T08:18:56;6.47;;;4.70;;
20038;SDS011;21737;42.868;25.320;2022-10-16T08:21:58;5.20;;;4.25;;
20038;SDS011;21737;42.868;25.320;2022-10-16T08:25:00;5.18;;;4.60;;
20038;SDS011;21737;42.868;25.320;2022-10-16T08:28:05;12.73;;;6.35;;
20038;SDS011;21737;42.868;25.320;2022-10-16T08:31:10;9.20;;;6.38;;
20038;SDS011;21737;42.868;25.320;2022-10-16T08:34:12;8.68;;;6.22;;
20038;SDS011;21737;42.868;25.320;2022-10-16T08:37:14;11.57;;;7.03;;
20038;SDS011;21737;42.868;25.320;2022-10-16T08:40:18;11.45;;;8.25;;
20038;SDS011;21737;42.868;25.320;2022-10-16T08:46:37;14.07;;;10.67;;
20038;SDS011;21737;42.868;25.320;2022-10-16T08:52:54;14.57;;;10.40;;
20038;SDS011;21737;42.868;25.320;2022-10-16T08:55:57;13.33;;;9.70;;
20038;SDS011;21737;42.868;25.320;2022-10-16T08:58:59;13.77;;;10.90;;
20038;SDS011;21737;42.868;25.320;2022-10-16T09:02:08;15.33;;;10.80;;
20038;SDS011;21737;42.868;25.320;2022-10-16T09:05:36;14.23;;;10.70;;
20038;SDS011;21737;42.868;25.320;2022-10-16T09:08:48;14.73;;;10.27;;
20038;SDS011;21737;42.868;25.320;2022-10-16T09:15:20;18.63;;;11.80;;
20038;SDS011;21737;42.868;25.320;2022-10-16T09:21:35;15.20;;;12.20;;
20038;SDS011;21737;42.868;25.320;2022-10-16T09:24:37;20.23;;;12.93;;
20038;SDS011;21737;42.868;25.320;2022-10-16T09:27:39;16.33;;;12.00;;
20038;SDS011;21737;42.868;25.320;2022-10-16T09:30:41;17.87;;;12.97;;
20038;SDS011;21737;42.868;25.320;2022-10-16T09:33:43;17.20;;;13.00;;
20038;SDS011;21737;42.868;25.320;2022-10-16T09:36:45;18.83;;;14.67;;
20038;SDS011;21737;42.868;25.320;2022-10-16T09:39:52;17.90;;;13.97;;
20038;SDS011;21737;42.868;25.320;2022-10-16T09:43:06;19.23;;;13.57;;
20038;SDS011;21737;42.868;25.320;2022-10-16T09:49:26;17.00;;;11.93;;
20038;SDS011;21737;42.868;25.320;2022-10-16T09:52:28;14.70;;;10.50;;
20038;SDS011;21737;42.868;25.320;2022-10-16T09:55:30;14.80;;;10.13;;
20038;SDS011;21737;42.868;25.320;2022-10-16T09:58:32;13.70;;;9.50;;
20038;SDS011;21737;42.868;25.320;2022-10-16T10:01:38;12.93;;;10.00;;
20038;SDS011;21737;42.868;25.320;2022-10-16T10:04:50;11.63;;;8.47;;
20038;SDS011;21737;42.868;25.320;2022-10-16T10:07:59;12.77;;;8.33;;
20038;SDS011;21737;42.868;25.320;2022-10-16T10:11:02;11.27;;;7.07;;
20038;SDS011;21737;42.868;25.320;2022-10-16T10:14:05;7.47;;;5.80;;
20038;SDS011;21737;42.868;25.320;2022-10-16T10:20:18;10.33;;;6.60;;
20038;SDS011;21737;42.868;25.320;2022-10-16T10:23:23;9.17;;;6.13;;
20038;SDS011;21737;42.868;25.320;2022-10-16T10:26:26;8.83;;;6.10;;
20038;SDS011;21737;42.868;25.320;2022-10-16T10:32:33;10.47;;;5.33;;
20038;SDS011;21737;42.868;25.320;2022-10-16T10:55:00;9.03;;;5.27;;
20038;SDS011;21737;42.868;25.320;2022-10-16T11:01:41;7.53;;;4.93;;
20038;SDS011;21737;42.868;25.320;2022-10-16T11:04:49;7.77;;;4.73;;
20038;SDS011;21737;42.868;25.320;2022-10-16T11:17:13;7.40;;;4.93;;
20038;SDS011;21737;42.868;25.320;2022-10-16T11:20:20;7.73;;;4.93;;
20038;SDS011;21737;42.868;25.320;2022-10-16T11:26:35;8.40;;;5.17;;
20038;SDS011;21737;42.868;25.320;2022-10-16T11:29:52;6.67;;;4.37;;
20038;SDS011;21737;42.868;25.320;2022-10-16T11:39:27;8.20;;;5.03;;
20038;SDS011;21737;42.868;25.320;2022-10-16T11:42:37;7.20;;;5.13;;
20038;SDS011;21737;42.868;25.320;2022-10-16T11:45:49;6.70;;;4.73;;
20038;SDS011;21737;42.868;25.320;2022-10-16T11:49:03;8.63;;;5.40;;
20038;SDS011;21737;42.868;25.320;2022-10-16T11:55:38;8.80;;;5.20;;
20038;SDS011;21737;42.868;25.320;2022-10-16T12:01:52;6.40;;;4.90;;
20038;SDS011;21737;42.868;25.320;2022-10-16T12:05:02;7.17;;;4.87;;
20038;SDS011;21737;42.868;25.320;2022-10-16T12:08:11;8.00;;;5.10;;
20038;SDS011;21737;42.868;25.320;2022-10-16T12:14:22;11.83;;;5.47;;
20038;SDS011;21737;42.868;25.320;2022-10-16T12:17:52;10.77;;;5.50;;
20038;SDS011;21737;42.868;25.320;2022-10-16T12:20:54;7.67;;;5.17;;
20038;SDS011;21737;42.868;25.320;2022-10-16T12:24:01;7.00;;;4.73;;
20038;SDS011;21737;42.868;25.320;2022-10-16T12:27:05;6.40;;;5.00;;
20038;SDS011;21737;42.868;25.320;2022-10-16T12:30:14;8.10;;;4.87;;
20038;SDS011;21737;42.868;25.320;2022-10-16T12:33:25;9.33;;;4.77;;
20038;SDS011;21737;42.868;25.320;2022-10-16T12:36:28;10.00;;;5.40;;
20038;SDS011;21737;42.868;25.320;2022-10-16T12:39:30;8.63;;;5.00;;
20038;SDS011;21737;42.868;25.320;2022-10-16T12:42:33;10.63;;;5.17;;
20038;SDS011;21737;42.868;25.320;2022-10-16T12:45:35;8.83;;;4.80;;
20038;SDS011;21737;42.868;25.320;2022-10-16T12:48:37;7.93;;;5.17;;
20038;SDS011;21737;42.868;25.320;2022-10-16T12:51:56;6.77;;;4.73;;
20038;SDS011;21737;42.868;25.320;2022-10-16T12:54:58;9.13;;;4.77;;
20038;SDS011;21737;42.868;25.320;2022-10-16T13:10:58;8.53;;;4.73;;
20038;SDS011;21737;42.868;25.320;2022-10-16T13:20:35;9.47;;;8.07;;
20038;SDS011;21737;42.868;25.320;2022-10-16T13:27:01;6.03;;;4.37;;
20038;SDS011;21737;42.868;25.320;2022-10-16T13:30:19;10.37;;;5.57;;
20038;SDS011;21737;42.868;25.320;2022-10-16T13:36:42;5.50;;;4.00;;
20038;SDS011;21737;42.868;25.320;2022-10-16T13:39:47;6.10;;;4.27;;
20038;SDS011;21737;42.868;25.320;2022-10-16T13:42:52;9.97;;;4.40;;
20038;SDS011;21737;42.868;25.320;2022-10-16T13:49:15;8.10;;;4.17;;
20038;SDS011;21737;42.868;25.320;2022-10-16T13:52:20;4.03;;;3.63;;
20038;SDS011;21737;42.868;25.320;2022-10-16T13:55:22;7.03;;;3.97;;
20038;SDS011;21737;42.868;25.320;2022-10-16T13:58:24;8.30;;;4.50;;
20038;SDS011;21737;42.868;25.320;2022-10-16T14:01:28;7.67;;;4.37;;
20038;SDS011;21737;42.868;25.320;2022-10-16T14:04:33;5.33;;;3.97;;
20038;SDS011;21737;42.868;25.320;2022-10-16T14:07:35;6.70;;;4.67;;
20038;SDS011;21737;42.868;25.320;2022-10-16T14:10:37;6.77;;;4.43;;
20038;SDS011;21737;42.868;25.320;2022-10-16T14:13:40;11.10;;;4.70;;
20038;SDS011;21737;42.868;25.320;2022-10-16T14:16:44;9.47;;;5.90;;
20038;SDS011;21737;42.868;25.320;2022-10-16T14:19:48;8.00;;;5.33;;
20038;SDS011;21737;42.868;25.320;2022-10-16T14:23:01;10.77;;;4.87;;
20038;SDS011;21737;42.868;25.320;2022-10-16T14:29:14;6.10;;;4.60;;
20038;SDS011;21737;42.868;25.320;2022-10-16T14:32:26;8.93;;;4.90;;
20038;SDS011;21737;42.868;25.320;2022-10-16T14:35:38;8.43;;;4.80;;
20038;SDS011;21737;42.868;25.320;2022-10-16T14:38:41;9.40;;;5.23;;
20038;SDS011;21737;42.868;25.320;2022-10-16T14:41:45;8.60;;;5.10;;
20038;SDS011;21737;42.868;25.320;2022-10-16T14:44:47;8.50;;;4.73;;
20038;SDS011;21737;42.868;25.320;2022-10-16T14:47:54;6.80;;;5.03;;
20038;SDS011;21737;42.868;25.320;2022-10-16T14:50:56;9.63;;;5.20;;
20038;SDS011;21737;42.868;25.320;2022-10-16T14:53:58;6.80;;;4.80;;
20038;SDS011;21737;42.868;25.320;2022-10-16T14:57:00;6.97;;;4.57;;
20038;SDS011;21737;42.868;25.320;2022-10-16T15:00:03;6.10;;;4.70;;
20038;SDS011;21737;42.868;25.320;2022-10-16T15:03:04;8.60;;;5.03;;
20038;SDS011;21737;42.868;25.320;2022-10-16T15:06:10;8.60;;;4.80;;
20038;SDS011;21737;42.868;25.320;2022-10-16T15:09:12;9.47;;;5.70;;
20038;SDS011;21737;42.868;25.320;2022-10-16T15:12:14;11.90;;;5.37;;
20038;SDS011;21737;42.868;25.320;2022-10-16T15:18:24;8.33;;;6.17;;
20038;SDS011;21737;42.868;25.320;2022-10-16T15:21:30;11.23;;;6.30;;
20038;SDS011;21737;42.868;25.320;2022-10-16T15:24:32;11.50;;;6.07;;
20038;SDS011;21737;42.868;25.320;2022-10-16T15:27:33;12.17;;;5.90;;
20038;SDS011;21737;42.868;25.320;2022-10-16T15:30:41;15.70;;;6.43;;
20038;SDS011;21737;42.868;25.320;2022-10-16T15:33:43;11.03;;;6.07;;
20038;SDS011;21737;42.868;25.320;2022-10-16T15:36:45;10.20;;;5.63;;
20038;SDS011;21737;42.868;25.320;2022-10-16T15:39:47;12.37;;;8.07;;
20038;SDS011;21737;42.868;25.320;2022-10-16T15:42:49;10.03;;;7.40;;
20038;SDS011;21737;42.868;25.320;2022-10-16T15:49:02;15.93;;;11.03;;
20038;SDS011;21737;42.868;25.320;2022-10-16T15:52:04;17.67;;;12.17;;
20038;SDS011;21737;42.868;25.320;2022-10-16T15:55:07;17.37;;;12.23;;
20038;SDS011;21737;42.868;25.320;2022-10-16T15:58:09;18.80;;;12.13;;
20038;SDS011;21737;42.868;25.320;2022-10-16T16:01:11;17.57;;;12.07;;
20038;SDS011;21737;42.868;25.320;2022-10-16T16:04:13;16.93;;;12.77;;
20038;SDS011;21737;42.868;25.320;2022-10-16T16:07:35;20.20;;;13.60;;
20038;SDS011;21737;42.868;25.320;2022-10-16T16:10:37;19.90;;;14.90;;
20038;SDS011;21737;42.868;25.320;2022-10-16T16:13:39;20.77;;;14.93;;
20038;SDS011;21737;42.868;25.320;2022-10-16T16:16:41;26.57;;;17.97;;
20038;SDS011;21737;42.868;25.320;2022-10-16T16:19:43;40.10;;;22.07;;
20038;SDS011;21737;42.868;25.320;2022-10-16T16:22:45;40.50;;;23.77;;
20038;SDS011;21737;42.868;25.320;2022-10-16T16:26:01;34.13;;;22.00;;
20038;SDS011;21737;42.868;25.320;2022-10-16T16:29:03;32.17;;;19.40;;
20038;SDS011;21737;42.868;25.320;2022-10-16T16:32:05;33.83;;;20.70;;
20038;SDS011;21737;42.868;25.320;2022-10-16T16:35:07;32.57;;;19.37;;
20038;SDS011;21737;42.868;25.320;2022-10-16T16:38:09;26.47;;;17.77;;
20038;SDS011;21737;42.868;25.320;2022-10-16T16:41:15;30.80;;;19.07;;
20038;SDS011;21737;42.868;25.320;2022-10-16T16:44:20;27.50;;;18.40;;
20038;SDS011;21737;42.868;25.320;2022-10-16T16:47:21;29.57;;;17.77;;
20038;SDS011;21737;42.868;25.320;2022-10-16T16:50:23;30.03;;;17.20;;
20038;SDS011;21737;42.868;25.320;2022-10-16T16:53:25;28.37;;;17.37;;
20038;SDS011;21737;42.868;25.320;2022-10-16T16:56:28;29.47;;;17.87;;
20038;SDS011;21737;42.868;25.320;2022-10-16T16:59:30;24.77;;;16.00;;
20038;SDS011;21737;42.868;25.320;2022-10-16T17:02:34;23.33;;;13.67;;
20038;SDS011;21737;42.868;25.320;2022-10-16T17:05:38;25.13;;;16.43;;
20038;SDS011;21737;42.868;25.320;2022-10-16T17:08:44;18.47;;;11.97;;
20038;SDS011;21737;42.868;25.320;2022-10-16T17:11:47;17.83;;;11.17;;
20038;SDS011;21737;42.868;25.320;2022-10-16T17:14:50;22.40;;;12.90;;
20038;SDS011;21737;42.868;25.320;2022-10-16T17:17:51;22.50;;;12.47;;
20038;SDS011;21737;42.868;25.320;2022-10-16T17:20:53;22.73;;;14.90;;
20038;SDS011;21737;42.868;25.320;2022-10-16T17:23:55;24.00;;;15.33;;
20038;SDS011;21737;42.868;25.320;2022-10-16T17:26:57;25.13;;;16.37;;
20038;SDS011;21737;42.868;25.320;2022-10-16T17:29:58;30.53;;;16.00;;
20038;SDS011;21737;42.868;25.320;2022-10-16T17:33:00;30.87;;;18.63;;
20038;SDS011;21737;42.868;25.320;2022-10-16T17:36:02;35.57;;;20.87;;
20038;SDS011;21737;42.868;25.320;2022-10-16T17:39:05;31.60;;;18.83;;
20038;SDS011;21737;42.868;25.320;2022-10-16T17:42:07;22.27;;;15.40;;
20038;SDS011;21737;42.868;25.320;2022-10-16T17:45:09;17.50;;;12.13;;
20038;SDS011;21737;42.868;25.320;2022-10-16T17:48:11;21.17;;;14.07;;
20038;SDS011;21737;42.868;25.320;2022-10-16T17:51:14;21.20;;;13.73;;
20038;SDS011;21737;42.868;25.320;2022-10-16T17:54:16;18.77;;;13.00;;
20038;SDS011;21737;42.868;25.320;2022-10-16T17:57:18;19.50;;;13.27;;
20038;SDS011;21737;42.868;25.320;2022-10-16T18:00:19;28.33;;;16.00;;
20038;SDS011;21737;42.868;25.320;2022-10-16T18:03:21;20.07;;;12.87;;
20038;SDS011;21737;42.868;25.320;2022-10-16T18:06:23;22.07;;;14.87;;
20038;SDS011;21737;42.868;25.320;2022-10-16T18:09:25;19.60;;;13.27;;
20038;SDS011;21737;42.868;25.320;2022-10-16T18:12:27;22.73;;;15.43;;
20038;SDS011;21737;42.868;25.320;2022-10-16T18:15:30;20.33;;;13.93;;
20038;SDS011;21737;42.868;25.320;2022-10-16T18:18:31;19.83;;;13.30;;
20038;SDS011;21737;42.868;25.320;2022-10-16T18:21:33;22.63;;;12.73;;
20038;SDS011;21737;42.868;25.320;2022-10-16T18:24:35;17.40;;;12.63;;
20038;SDS011;21737;42.868;25.320;2022-10-16T18:27:36;17.23;;;10.90;;
20038;SDS011;21737;42.868;25.320;2022-10-16T18:30:38;29.20;;;17.70;;
20038;SDS011;21737;42.868;25.320;2022-10-16T18:33:40;23.97;;;14.63;;
20038;SDS011;21737;42.868;25.320;2022-10-16T18:36:48;22.17;;;12.27;;
20038;SDS011;21737;42.868;25.320;2022-10-16T18:39:55;27.83;;;14.93;;
20038;SDS011;21737;42.868;25.320;2022-10-16T18:42:56;23.17;;;13.47;;
20038;SDS011;21737;42.868;25.320;2022-10-16T18:46:02;19.87;;;11.70;;
20038;SDS011;21737;42.868;25.320;2022-10-16T18:49:04;31.17;;;16.43;;
20038;SDS011;21737;42.868;25.320;2022-10-16T18:52:06;27.53;;;15.00;;
20038;SDS011;21737;42.868;25.320;2022-10-16T18:55:08;17.57;;;12.20;;
20038;SDS011;21737;42.868;25.320;2022-10-16T18:58:09;22.10;;;14.13;;
20038;SDS011;21737;42.868;25.320;2022-10-16T19:01:13;26.90;;;16.20;;
20038;SDS011;21737;42.868;25.320;2022-10-16T19:04:17;21.97;;;13.33;;
20038;SDS011;21737;42.868;25.320;2022-10-16T19:07:18;24.50;;;14.40;;
20038;SDS011;21737;42.868;25.320;2022-10-16T19:10:20;25.30;;;14.33;;
20038;SDS011;21737;42.868;25.320;2022-10-16T19:13:22;29.63;;;14.97;;
20038;SDS011;21737;42.868;25.320;2022-10-16T19:16:28;22.93;;;12.47;;
20038;SDS011;21737;42.868;25.320;2022-10-16T19:19:30;31.67;;;14.33;;
20038;SDS011;21737;42.868;25.320;2022-10-16T19:22:32;20.67;;;11.60;;
20038;SDS011;21737;42.868;25.320;2022-10-16T19:25:52;19.73;;;12.10;;
20038;SDS011;21737;42.868;25.320;2022-10-16T19:28:54;21.60;;;11.90;;
20038;SDS011;21737;42.868;25.320;2022-10-16T19:31:58;20.00;;;12.10;;
20038;SDS011;21737;42.868;25.320;2022-10-16T19:35:07;21.83;;;13.13;;
20038;SDS011;21737;42.868;25.320;2022-10-16T19:38:09;22.97;;;14.10;;
20038;SDS011;21737;42.868;25.320;2022-10-16T19:41:12;17.40;;;11.10;;
20038;SDS011;21737;42.868;25.320;2022-10-16T19:44:15;18.50;;;12.10;;
20038;SDS011;21737;42.868;25.320;2022-10-16T19:47:17;21.17;;;12.07;;
20038;SDS011;21737;42.868;25.320;2022-10-16T19:50:23;19.30;;;12.27;;
20038;SDS011;21737;42.868;25.320;2022-10-16T19:53:25;17.30;;;11.43;;
20038;SDS011;21737;42.868;25.320;2022-10-16T19:56:29;21.30;;;11.53;;
20038;SDS011;21737;42.868;25.320;2022-10-16T19:59:31;24.60;;;12.40;;
20038;SDS011;21737;42.868;25.320;2022-10-16T20:02:33;24.60;;;15.83;;